This is the latest recevied weather packets stored in our database for station/object OH2MUI. If no packets are shown the sender has not sent any weather packets the latest 10 day(s).
| Time | Temp. | Humidity | Pressure | Rain* | Wind** | Luminosity | Snow |
|---|---|---|---|---|---|---|---|
| 1777695694 | 3.33° C | 94% | 1013.2 hPa | 0 mm | - | - | - |
| 1777694629 | 3.33° C | 94% | 1013.3 hPa | 0 mm | - | - | - |
| 1777693629 | 2.78° C | 93% | 1013.5 hPa | 0 mm | - | - | - |
| 1777692604 | 2.78° C | 92% | 1013.4 hPa | 0 mm | - | - | - |
| 1777691419 | 2.78° C | 91% | 1013.5 hPa | 0 mm | - | - | - |
| 1777690379 | 3.33° C | 91% | 1013.8 hPa | 0 mm | - | - | - |
| 1777689384 | 3.33° C | 91% | 1013.8 hPa | 0 mm | - | - | - |
| 1777673759 | 7.22° C | 77% | 1015.7 hPa | 0 mm | - | - | - |
| 1777670439 | 8.33° C | 74% | 1016.3 hPa | 0 mm | - | - | - |
| 1777668209 | 10° C | 69% | 1016.6 hPa | 0 mm | - | - | - |
| 1777667232 | 10° C | 69% | 1016.7 hPa | 0 mm | - | - | - |
| 1777663974 | 12.78° C | 60% | 1016.7 hPa | 0 mm | - | - | - |
| 1777660469 | 15.56° C | 53% | 1016.9 hPa | 0 mm | - | - | - |
| 1777659489 | 15.56° C | 52% | 1017 hPa | 0 mm | - | - | - |
| 1777654293 | 18.89° C | - | - | 0 mm | - | - | - |
| 1777654289 | 18.89° C | 47% | 1017.4 hPa | 0 mm | - | - | - |
| 1777653224 | 18.89° C | 47% | 1017.5 hPa | 0 mm | - | - | - |
| 1777651175 | 19.44° C | 45% | 1017.5 hPa | 0 mm | - | - | - |
| 1777650089 | 20° C | 45% | 1017.5 hPa | 0 mm | - | - | - |
| 1777649109 | 20° C | 45% | 1017.6 hPa | 0 mm | - | - | - |
| 1777647986 | 20° C | 45% | 1017.6 hPa | 0 mm | - | - | - |
| 1777646794 | 20° C | 44% | 1017.7 hPa | 0 mm | - | - | - |
| 1777645779 | 20.56° C | 40% | 1017.9 hPa | 0 mm | - | - | - |
| 1777644729 | 20° C | 39% | 1018 hPa | 0 mm | - | - | - |
| 1777643559 | 20° C | 41% | 1018.2 hPa | 0 mm | - | - | - |
* Rain latest hour (hover to see other rain measurements)
** Current wind speed in m/s (hover to see current wind gust speed)